Bokeelia, Florida
Current Conditions -  °F | °C
As of 6:53 AM on Wednesday 28 Jan 2015 (Local Time) from KPGD Reporting Station
Clear Clear  
Wind Chill: 44°   Ceiling: Unl
Heat Index: 47°   Visibility: 10mi
Dew Point: 44°   Wind: 6mph
Humidity: 90%   Direction: 360°N
Pressure: 30.17"   Gusts: NA
Location:  26.71°N, 82.16°W
Report Text: KPGD 281153Z AUTO 36005KT 10SM CLR 08/07 A3017 RMK AO2 SLP216 T00830067 10133 20078 53022
Loading
Personal Weather Stations






























Interactive Weather Map New forecast layout! Learn more

10-Day Weather Forecast

Advertisements
Track Severe Weather on mobile